sensor_id;sensor_type;location;lat;lon;timestamp;temperature;humidity
6174;DHT22;3120;48.796;9.796;2023-07-20T00:00:47;20.10;63.00
6174;DHT22;3120;48.796;9.796;2023-07-20T00:03:14;20.20;61.80
6174;DHT22;3120;48.796;9.796;2023-07-20T00:05:45;20.30;61.60
6174;DHT22;3120;48.796;9.796;2023-07-20T00:08:10;20.30;61.50
6174;DHT22;3120;48.796;9.796;2023-07-20T00:10:36;20.30;61.60
6174;DHT22;3120;48.796;9.796;2023-07-20T00:13:01;20.20;61.40
6174;DHT22;3120;48.796;9.796;2023-07-20T00:15:27;20.50;61.50
6174;DHT22;3120;48.796;9.796;2023-07-20T00:17:53;20.20;61.20
6174;DHT22;3120;48.796;9.796;2023-07-20T00:20:18;20.20;60.80
6174;DHT22;3120;48.796;9.796;2023-07-20T00:22:44;20.20;60.80
6174;DHT22;3120;48.796;9.796;2023-07-20T00:25:09;20.40;60.00
6174;DHT22;3120;48.796;9.796;2023-07-20T00:27:37;20.20;59.80
6174;DHT22;3120;48.796;9.796;2023-07-20T00:30:04;20.30;59.50
6174;DHT22;3120;48.796;9.796;2023-07-20T00:32:29;20.30;59.60
6174;DHT22;3120;48.796;9.796;2023-07-20T00:34:55;20.30;59.30
6174;DHT22;3120;48.796;9.796;2023-07-20T00:37:21;20.20;59.50
6174;DHT22;3120;48.796;9.796;2023-07-20T00:39:47;20.30;59.50
6174;DHT22;3120;48.796;9.796;2023-07-20T00:42:12;20.20;59.20
6174;DHT22;3120;48.796;9.796;2023-07-20T00:44:38;20.30;59.60
6174;DHT22;3120;48.796;9.796;2023-07-20T00:47:04;20.10;61.20
6174;DHT22;3120;48.796;9.796;2023-07-20T00:49:30;20.10;61.30
6174;DHT22;3120;48.796;9.796;2023-07-20T00:51:56;20.00;61.40
6174;DHT22;3120;48.796;9.796;2023-07-20T00:54:21;20.00;61.40
6174;DHT22;3120;48.796;9.796;2023-07-20T00:56:47;20.00;61.50
6174;DHT22;3120;48.796;9.796;2023-07-20T00:59:13;19.90;61.80
6174;DHT22;3120;48.796;9.796;2023-07-20T01:01:39;19.90;62.30
6174;DHT22;3120;48.796;9.796;2023-07-20T01:04:05;19.70;62.50
6174;DHT22;3120;48.796;9.796;2023-07-20T01:11:59;19.60;62.70
6174;DHT22;3120;48.796;9.796;2023-07-20T01:14:27;19.50;62.20
6174;DHT22;3120;48.796;9.796;2023-07-20T01:16:53;19.50;62.20
6174;DHT22;3120;48.796;9.796;2023-07-20T01:19:18;19.90;62.20
6174;DHT22;3120;48.796;9.796;2023-07-20T01:22:09;19.50;61.10
6174;DHT22;3120;48.796;9.796;2023-07-20T01:33:13;19.40;61.40
6174;DHT22;3120;48.796;9.796;2023-07-20T01:35:41;19.40;61.60
6174;DHT22;3120;48.796;9.796;2023-07-20T01:38:10;19.30;60.60
6174;DHT22;3120;48.796;9.796;2023-07-20T01:40:36;19.30;60.40
6174;DHT22;3120;48.796;9.796;2023-07-20T01:43:03;19.30;60.70
6174;DHT22;3120;48.796;9.796;2023-07-20T01:45:28;19.20;60.80
6174;DHT22;3120;48.796;9.796;2023-07-20T01:47:54;19.20;61.10
6174;DHT22;3120;48.796;9.796;2023-07-20T01:50:20;19.10;60.80
6174;DHT22;3120;48.796;9.796;2023-07-20T01:52:45;19.00;61.10
6174;DHT22;3120;48.796;9.796;2023-07-20T01:55:11;19.00;61.60
6174;DHT22;3120;48.796;9.796;2023-07-20T01:57:36;18.90;61.90
6174;DHT22;3120;48.796;9.796;2023-07-20T02:00:02;18.90;62.20
6174;DHT22;3120;48.796;9.796;2023-07-20T02:02:28;18.70;63.80
6174;DHT22;3120;48.796;9.796;2023-07-20T02:04:54;18.60;64.60
6174;DHT22;3120;48.796;9.796;2023-07-20T02:07:19;18.50;64.70
6174;DHT22;3120;48.796;9.796;2023-07-20T02:09:45;18.50;64.90
6174;DHT22;3120;48.796;9.796;2023-07-20T02:12:10;18.50;64.90
6174;DHT22;3120;48.796;9.796;2023-07-20T02:14:36;18.50;66.80
6174;DHT22;3120;48.796;9.796;2023-07-20T02:17:01;18.50;66.70
6174;DHT22;3120;48.796;9.796;2023-07-20T02:19:29;18.40;66.90
6174;DHT22;3120;48.796;9.796;2023-07-20T02:21:55;18.40;66.30
6174;DHT22;3120;48.796;9.796;2023-07-20T02:24:20;18.40;66.50
6174;DHT22;3120;48.796;9.796;2023-07-20T02:26:46;18.40;67.10
6174;DHT22;3120;48.796;9.796;2023-07-20T02:29:11;18.40;66.50
6174;DHT22;3120;48.796;9.796;2023-07-20T02:31:37;18.30;65.70
6174;DHT22;3120;48.796;9.796;2023-07-20T02:34:05;18.30;66.30
6174;DHT22;3120;48.796;9.796;2023-07-20T02:36:31;18.20;67.20
6174;DHT22;3120;48.796;9.796;2023-07-20T02:38:58;18.10;69.10
6174;DHT22;3120;48.796;9.796;2023-07-20T02:41:24;18.00;67.50
6174;DHT22;3120;48.796;9.796;2023-07-20T02:43:50;18.00;67.90
6174;DHT22;3120;48.796;9.796;2023-07-20T02:46:15;17.80;71.20
6174;DHT22;3120;48.796;9.796;2023-07-20T02:48:41;17.70;69.80
6174;DHT22;3120;48.796;9.796;2023-07-20T02:51:06;17.70;70.30
6174;DHT22;3120;48.796;9.796;2023-07-20T02:53:33;17.60;70.10
6174;DHT22;3120;48.796;9.796;2023-07-20T02:55:58;17.50;71.40
6174;DHT22;3120;48.796;9.796;2023-07-20T02:58:24;17.50;70.30
6174;DHT22;3120;48.796;9.796;2023-07-20T03:00:49;17.50;73.30
6174;DHT22;3120;48.796;9.796;2023-07-20T03:03:15;17.40;71.60
6174;DHT22;3120;48.796;9.796;2023-07-20T03:05:41;17.40;73.80
6174;DHT22;3120;48.796;9.796;2023-07-20T03:08:07;17.30;73.60
6174;DHT22;3120;48.796;9.796;2023-07-20T03:10:33;17.30;73.90
6174;DHT22;3120;48.796;9.796;2023-07-20T03:13:03;17.30;73.90
6174;DHT22;3120;48.796;9.796;2023-07-20T03:15:29;17.30;77.20
6174;DHT22;3120;48.796;9.796;2023-07-20T03:17:54;17.20;73.20
6174;DHT22;3120;48.796;9.796;2023-07-20T03:20:20;17.20;72.50
6174;DHT22;3120;48.796;9.796;2023-07-20T03:22:46;17.10;74.70
6174;DHT22;3120;48.796;9.796;2023-07-20T03:25:11;17.10;74.50
6174;DHT22;3120;48.796;9.796;2023-07-20T03:27:37;17.00;74.00
6174;DHT22;3120;48.796;9.796;2023-07-20T03:30:03;16.90;77.80
6174;DHT22;3120;48.796;9.796;2023-07-20T03:32:28;16.80;80.00
6174;DHT22;3120;48.796;9.796;2023-07-20T03:34:54;16.60;81.10
6174;DHT22;3120;48.796;9.796;2023-07-20T03:37:19;16.70;79.40
6174;DHT22;3120;48.796;9.796;2023-07-20T03:39:45;16.60;80.90
6174;DHT22;3120;48.796;9.796;2023-07-20T03:42:10;16.50;79.30
6174;DHT22;3120;48.796;9.796;2023-07-20T03:44:36;16.50;80.30
6174;DHT22;3120;48.796;9.796;2023-07-20T03:47:03;16.50;81.60
6174;DHT22;3120;48.796;9.796;2023-07-20T03:49:30;16.50;81.70
6174;DHT22;3120;48.796;9.796;2023-07-20T03:51:55;16.50;83.90
6174;DHT22;3120;48.796;9.796;2023-07-20T03:54:21;16.50;83.60
6174;DHT22;3120;48.796;9.796;2023-07-20T03:56:46;16.50;86.10
6174;DHT22;3120;48.796;9.796;2023-07-20T03:59:12;16.40;86.60
6174;DHT22;3120;48.796;9.796;2023-07-20T04:01:37;16.40;85.70
6174;DHT22;3120;48.796;9.796;2023-07-20T04:04:07;16.30;85.00
6174;DHT22;3120;48.796;9.796;2023-07-20T04:06:33;16.30;84.70
6174;DHT22;3120;48.796;9.796;2023-07-20T04:08:59;16.30;85.20
6174;DHT22;3120;48.796;9.796;2023-07-20T04:11:24;16.30;85.10
6174;DHT22;3120;48.796;9.796;2023-07-20T04:13:50;16.20;86.40
6174;DHT22;3120;48.796;9.796;2023-07-20T04:16:16;16.10;86.40
6174;DHT22;3120;48.796;9.796;2023-07-20T04:18:41;16.20;89.10
6174;DHT22;3120;48.796;9.796;2023-07-20T04:21:10;16.10;86.60
6174;DHT22;3120;48.796;9.796;2023-07-20T04:23:36;16.10;87.50
6174;DHT22;3120;48.796;9.796;2023-07-20T04:26:02;16.20;88.30
6174;DHT22;3120;48.796;9.796;2023-07-20T04:28:28;16.10;90.10
6174;DHT22;3120;48.796;9.796;2023-07-20T04:30:53;16.10;90.20
6174;DHT22;3120;48.796;9.796;2023-07-20T04:33:19;16.10;92.00
6174;DHT22;3120;48.796;9.796;2023-07-20T04:35:52;16.10;91.60
6174;DHT22;3120;48.796;9.796;2023-07-20T04:38:18;16.10;91.50
6174;DHT22;3120;48.796;9.796;2023-07-20T04:40:48;16.20;90.90
6174;DHT22;3120;48.796;9.796;2023-07-20T04:43:15;16.10;92.00
6174;DHT22;3120;48.796;9.796;2023-07-20T04:45:41;16.20;91.70
6174;DHT22;3120;48.796;9.796;2023-07-20T04:48:10;16.20;91.30
6174;DHT22;3120;48.796;9.796;2023-07-20T04:50:37;16.30;90.70
6174;DHT22;3120;48.796;9.796;2023-07-20T04:53:03;16.30;90.10
6174;DHT22;3120;48.796;9.796;2023-07-20T04:55:28;16.40;90.30
6174;DHT22;3120;48.796;9.796;2023-07-20T04:57:54;16.40;87.00
6174;DHT22;3120;48.796;9.796;2023-07-20T05:00:20;16.50;86.50
6174;DHT22;3120;48.796;9.796;2023-07-20T05:02:46;16.60;84.90
6174;DHT22;3120;48.796;9.796;2023-07-20T05:05:14;16.60;85.80
6174;DHT22;3120;48.796;9.796;2023-07-20T05:07:40;16.60;85.00
6174;DHT22;3120;48.796;9.796;2023-07-20T05:10:06;16.70;83.50
6174;DHT22;3120;48.796;9.796;2023-07-20T05:12:31;16.80;83.40
6174;DHT22;3120;48.796;9.796;2023-07-20T05:14:57;16.90;81.60
6174;DHT22;3120;48.796;9.796;2023-07-20T05:17:23;17.00;80.30
6174;DHT22;3120;48.796;9.796;2023-07-20T05:19:50;17.10;79.00
6174;DHT22;3120;48.796;9.796;2023-07-20T05:22:16;17.20;78.30
6174;DHT22;3120;48.796;9.796;2023-07-20T05:24:43;17.20;77.60
6174;DHT22;3120;48.796;9.796;2023-07-20T05:27:10;17.60;77.80
6174;DHT22;3120;48.796;9.796;2023-07-20T05:29:36;17.40;77.50
6174;DHT22;3120;48.796;9.796;2023-07-20T05:32:03;17.50;77.00
6174;DHT22;3120;48.796;9.796;2023-07-20T05:34:54;17.70;76.80
6174;DHT22;3120;48.796;9.796;2023-07-20T05:37:20;17.90;75.50
6174;DHT22;3120;48.796;9.796;2023-07-20T05:40:27;17.90;74.90
6174;DHT22;3120;48.796;9.796;2023-07-20T05:43:56;18.20;73.70
6174;DHT22;3120;48.796;9.796;2023-07-20T05:46:29;18.30;73.10
6174;DHT22;3120;48.796;9.796;2023-07-20T05:49:04;18.40;71.90
6174;DHT22;3120;48.796;9.796;2023-07-20T05:51:53;18.50;72.70
6174;DHT22;3120;48.796;9.796;2023-07-20T05:54:24;18.70;71.10
6174;DHT22;3120;48.796;9.796;2023-07-20T05:56:51;18.90;70.60
6174;DHT22;3120;48.796;9.796;2023-07-20T05:59:17;19.00;70.00
6174;DHT22;3120;48.796;9.796;2023-07-20T06:02:14;19.10;69.50
6174;DHT22;3120;48.796;9.796;2023-07-20T06:04:51;19.30;68.70
6174;DHT22;3120;48.796;9.796;2023-07-20T06:07:56;19.40;67.70
6174;DHT22;3120;48.796;9.796;2023-07-20T06:10:51;19.70;67.70
6174;DHT22;3120;48.796;9.796;2023-07-20T06:13:47;19.60;67.80
6174;DHT22;3120;48.796;9.796;2023-07-20T07:27:26;21.70;56.70
6174;DHT22;3120;48.796;9.796;2023-07-20T07:29:55;21.80;56.90
6174;DHT22;3120;48.796;9.796;2023-07-20T07:32:29;22.00;56.50
6174;DHT22;3120;48.796;9.796;2023-07-20T12:56:32;32.50;27.30
6174;DHT22;3120;48.796;9.796;2023-07-20T12:58:59;32.30;27.40
6174;DHT22;3120;48.796;9.796;2023-07-20T13:01:29;32.50;27.50
6174;DHT22;3120;48.796;9.796;2023-07-20T16:54:25;29.80;28.10
6174;DHT22;3120;48.796;9.796;2023-07-20T16:56:51;29.80;28.90
6174;DHT22;3120;48.796;9.796;2023-07-20T16:59:17;29.40;29.10
6174;DHT22;3120;48.796;9.796;2023-07-20T17:01:43;29.90;27.50
6174;DHT22;3120;48.796;9.796;2023-07-20T17:04:10;29.70;28.60
6174;DHT22;3120;48.796;9.796;2023-07-20T17:06:35;29.60;28.80
6174;DHT22;3120;48.796;9.796;2023-07-20T17:09:01;29.90;27.90
6174;DHT22;3120;48.796;9.796;2023-07-20T17:11:27;30.00;28.50
6174;DHT22;3120;48.796;9.796;2023-07-20T17:13:52;29.80;28.00
6174;DHT22;3120;48.796;9.796;2023-07-20T17:16:18;29.60;28.50
6174;DHT22;3120;48.796;9.796;2023-07-20T17:18:48;29.30;28.60
6174;DHT22;3120;48.796;9.796;2023-07-20T17:21:17;29.00;28.30
6174;DHT22;3120;48.796;9.796;2023-07-20T17:23:45;28.80;29.00
6174;DHT22;3120;48.796;9.796;2023-07-20T17:26:19;28.40;30.40
6174;DHT22;3120;48.796;9.796;2023-07-20T17:28:56;28.10;30.00
6174;DHT22;3120;48.796;9.796;2023-07-20T17:31:23;28.00;30.20
6174;DHT22;3120;48.796;9.796;2023-07-20T17:33:53;27.60;30.80
6174;DHT22;3120;48.796;9.796;2023-07-20T17:36:19;27.80;31.00
6174;DHT22;3120;48.796;9.796;2023-07-20T17:38:47;27.90;30.90
6174;DHT22;3120;48.796;9.796;2023-07-20T17:41:13;28.00;30.50
6174;DHT22;3120;48.796;9.796;2023-07-20T17:43:38;27.70;32.00
6174;DHT22;3120;48.796;9.796;2023-07-20T17:46:04;27.60;30.90
6174;DHT22;3120;48.796;9.796;2023-07-20T17:48:29;27.20;32.30
6174;DHT22;3120;48.796;9.796;2023-07-20T17:50:55;26.80;32.70
6174;DHT22;3120;48.796;9.796;2023-07-20T17:53:20;26.50;34.50
6174;DHT22;3120;48.796;9.796;2023-07-20T17:55:47;26.10;33.40
6174;DHT22;3120;48.796;9.796;2023-07-20T17:58:12;26.10;33.50
6174;DHT22;3120;48.796;9.796;2023-07-20T18:00:38;26.00;33.70
6174;DHT22;3120;48.796;9.796;2023-07-20T18:03:03;26.10;32.90
6174;DHT22;3120;48.796;9.796;2023-07-20T18:05:38;26.00;33.40
6174;DHT22;3120;48.796;9.796;2023-07-20T18:08:04;25.90;33.80
6174;DHT22;3120;48.796;9.796;2023-07-20T18:10:30;25.80;34.30
6174;DHT22;3120;48.796;9.796;2023-07-20T18:12:55;25.70;35.00
6174;DHT22;3120;48.796;9.796;2023-07-20T18:15:21;25.40;36.10
6174;DHT22;3120;48.796;9.796;2023-07-20T18:17:47;25.10;38.40
6174;DHT22;3120;48.796;9.796;2023-07-20T18:20:25;25.00;36.90
6174;DHT22;3120;48.796;9.796;2023-07-20T18:22:51;24.90;37.50
6174;DHT22;3120;48.796;9.796;2023-07-20T18:25:17;24.80;38.20
6174;DHT22;3120;48.796;9.796;2023-07-20T18:27:43;24.60;38.50
6174;DHT22;3120;48.796;9.796;2023-07-20T18:30:09;24.50;39.40
6174;DHT22;3120;48.796;9.796;2023-07-20T18:32:35;24.40;39.30
6174;DHT22;3120;48.796;9.796;2023-07-20T18:35:00;24.20;39.80
6174;DHT22;3120;48.796;9.796;2023-07-20T18:37:28;24.00;40.20
6174;DHT22;3120;48.796;9.796;2023-07-20T18:39:54;23.90;40.50
6174;DHT22;3120;48.796;9.796;2023-07-20T18:42:19;23.80;40.70
6174;DHT22;3120;48.796;9.796;2023-07-20T18:44:45;23.60;41.10
6174;DHT22;3120;48.796;9.796;2023-07-20T18:47:11;23.50;41.90
6174;DHT22;3120;48.796;9.796;2023-07-20T18:49:36;23.40;41.40
6174;DHT22;3120;48.796;9.796;2023-07-20T18:52:04;23.30;41.80
6174;DHT22;3120;48.796;9.796;2023-07-20T18:54:30;23.10;42.90
6174;DHT22;3120;48.796;9.796;2023-07-20T18:56:56;23.10;42.80
6174;DHT22;3120;48.796;9.796;2023-07-20T18:59:21;23.10;44.60
6174;DHT22;3120;48.796;9.796;2023-07-20T19:01:47;23.10;44.70
6174;DHT22;3120;48.796;9.796;2023-07-20T19:04:13;23.00;45.20
6174;DHT22;3120;48.796;9.796;2023-07-20T19:06:38;22.80;45.80
6174;DHT22;3120;48.796;9.796;2023-07-20T19:09:04;22.80;45.60
6174;DHT22;3120;48.796;9.796;2023-07-20T19:11:31;22.70;45.00
6174;DHT22;3120;48.796;9.796;2023-07-20T19:13:57;22.60;47.60
6174;DHT22;3120;48.796;9.796;2023-07-20T19:16:44;22.50;47.30
6174;DHT22;3120;48.796;9.796;2023-07-20T19:19:19;22.40;46.70
6174;DHT22;3120;48.796;9.796;2023-07-20T19:21:46;22.30;47.90
6174;DHT22;3120;48.796;9.796;2023-07-20T19:24:14;22.10;48.20
6174;DHT22;3120;48.796;9.796;2023-07-20T19:26:47;22.00;49.80
6174;DHT22;3120;48.796;9.796;2023-07-20T19:29:14;21.90;50.00
6174;DHT22;3120;48.796;9.796;2023-07-20T19:31:40;21.80;50.50
6174;DHT22;3120;48.796;9.796;2023-07-20T19:34:06;21.70;51.40
6174;DHT22;3120;48.796;9.796;2023-07-20T19:36:37;21.50;51.20
6174;DHT22;3120;48.796;9.796;2023-07-20T19:39:03;21.50;51.80
6174;DHT22;3120;48.796;9.796;2023-07-20T19:41:30;21.40;51.90
6174;DHT22;3120;48.796;9.796;2023-07-20T19:43:57;21.30;53.00
6174;DHT22;3120;48.796;9.796;2023-07-20T19:46:23;21.20;52.90
6174;DHT22;3120;48.796;9.796;2023-07-20T19:48:49;21.10;52.80
6174;DHT22;3120;48.796;9.796;2023-07-20T19:51:15;21.10;53.10
6174;DHT22;3120;48.796;9.796;2023-07-20T19:53:41;20.90;53.50
6174;DHT22;3120;48.796;9.796;2023-07-20T19:56:07;20.90;54.00
6174;DHT22;3120;48.796;9.796;2023-07-20T19:58:33;20.70;54.00
6174;DHT22;3120;48.796;9.796;2023-07-20T20:01:00;20.60;54.30
6174;DHT22;3120;48.796;9.796;2023-07-20T20:03:26;20.50;55.30
6174;DHT22;3120;48.796;9.796;2023-07-20T20:05:52;20.40;55.50
6174;DHT22;3120;48.796;9.796;2023-07-20T20:08:19;20.30;55.70
6174;DHT22;3120;48.796;9.796;2023-07-20T20:10:46;20.30;55.90
6174;DHT22;3120;48.796;9.796;2023-07-20T20:13:12;20.20;56.30
6174;DHT22;3120;48.796;9.796;2023-07-20T20:15:41;20.10;57.10
6174;DHT22;3120;48.796;9.796;2023-07-20T20:18:07;20.00;56.70
6174;DHT22;3120;48.796;9.796;2023-07-20T20:33:30;19.60;58.20
6174;DHT22;3120;48.796;9.796;2023-07-20T20:36:00;19.60;58.40
6174;DHT22;3120;48.796;9.796;2023-07-20T20:38:28;19.50;58.70
6174;DHT22;3120;48.796;9.796;2023-07-20T20:41:07;19.40;59.90
6174;DHT22;3120;48.796;9.796;2023-07-20T20:43:49;19.40;59.60
6174;DHT22;3120;48.796;9.796;2023-07-20T20:46:18;19.30;60.10
6174;DHT22;3120;48.796;9.796;2023-07-20T20:49:03;19.30;60.00
6174;DHT22;3120;48.796;9.796;2023-07-20T20:51:37;19.10;59.60
6174;DHT22;3120;48.796;9.796;2023-07-20T20:54:18;19.00;60.90
6174;DHT22;3120;48.796;9.796;2023-07-20T20:56:50;19.00;61.80
6174;DHT22;3120;48.796;9.796;2023-07-20T20:59:16;19.00;60.70
6174;DHT22;3120;48.796;9.796;2023-07-20T21:01:46;18.90;61.20
6174;DHT22;3120;48.796;9.796;2023-07-20T21:04:14;18.80;61.40
6174;DHT22;3120;48.796;9.796;2023-07-20T21:06:43;18.80;61.80
6174;DHT22;3120;48.796;9.796;2023-07-20T21:09:08;18.70;62.40
6174;DHT22;3120;48.796;9.796;2023-07-20T21:11:34;18.70;62.40
6174;DHT22;3120;48.796;9.796;2023-07-20T21:14:06;18.60;63.20
6174;DHT22;3120;48.796;9.796;2023-07-20T21:16:49;18.60;63.20
6174;DHT22;3120;48.796;9.796;2023-07-20T21:19:15;18.50;64.30
6174;DHT22;3120;48.796;9.796;2023-07-20T21:21:44;18.30;65.40
6174;DHT22;3120;48.796;9.796;2023-07-20T21:24:13;18.30;65.70
6174;DHT22;3120;48.796;9.796;2023-07-20T21:26:44;18.40;65.20
6174;DHT22;3120;48.796;9.796;2023-07-20T21:29:09;18.30;65.40
6174;DHT22;3120;48.796;9.796;2023-07-20T21:31:38;18.40;65.00
6174;DHT22;3120;48.796;9.796;2023-07-20T21:34:04;18.30;65.20
6174;DHT22;3120;48.796;9.796;2023-07-20T21:36:30;18.20;65.60
6174;DHT22;3120;48.796;9.796;2023-07-20T21:38:55;18.20;66.70
6174;DHT22;3120;48.796;9.796;2023-07-20T21:41:25;18.30;65.70
6174;DHT22;3120;48.796;9.796;2023-07-20T21:43:58;18.10;65.90
6174;DHT22;3120;48.796;9.796;2023-07-20T21:46:24;18.00;66.30
6174;DHT22;3120;48.796;9.796;2023-07-20T21:48:50;18.00;65.90
6174;DHT22;3120;48.796;9.796;2023-07-20T21:51:16;17.90;66.30
6174;DHT22;3120;48.796;9.796;2023-07-20T21:53:44;17.90;66.30
6174;DHT22;3120;48.796;9.796;2023-07-20T21:56:13;17.80;68.70
6174;DHT22;3120;48.796;9.796;2023-07-20T21:58:41;17.60;70.10
6174;DHT22;3120;48.796;9.796;2023-07-20T22:01:07;17.50;69.30
6174;DHT22;3120;48.796;9.796;2023-07-20T22:03:33;17.60;69.70
6174;DHT22;3120;48.796;9.796;2023-07-20T22:06:02;17.60;69.40
6174;DHT22;3120;48.796;9.796;2023-07-20T22:08:28;17.70;68.30
6174;DHT22;3120;48.796;9.796;2023-07-20T22:10:53;17.70;67.80
6174;DHT22;3120;48.796;9.796;2023-07-20T22:13:20;17.70;67.70
6174;DHT22;3120;48.796;9.796;2023-07-20T22:15:46;17.50;70.70
6174;DHT22;3120;48.796;9.796;2023-07-20T22:18:11;17.40;71.00
6174;DHT22;3120;48.796;9.796;2023-07-20T22:20:37;17.30;70.50
6174;DHT22;3120;48.796;9.796;2023-07-20T22:23:04;17.20;71.30
6174;DHT22;3120;48.796;9.796;2023-07-20T22:25:30;17.20;71.50
6174;DHT22;3120;48.796;9.796;2023-07-20T22:27:55;17.20;71.20
6174;DHT22;3120;48.796;9.796;2023-07-20T22:30:21;17.30;71.10
6174;DHT22;3120;48.796;9.796;2023-07-20T22:32:47;17.30;71.60
6174;DHT22;3120;48.796;9.796;2023-07-20T22:35:13;17.30;71.40
6174;DHT22;3120;48.796;9.796;2023-07-20T22:37:39;17.30;71.90
6174;DHT22;3120;48.796;9.796;2023-07-20T22:42:41;17.10;71.70
6174;DHT22;3120;48.796;9.796;2023-07-20T22:45:08;17.00;73.40
6174;DHT22;3120;48.796;9.796;2023-07-20T22:47:34;17.00;73.20
6174;DHT22;3120;48.796;9.796;2023-07-20T22:50:01;17.00;74.50
6174;DHT22;3120;48.796;9.796;2023-07-20T22:52:28;16.90;75.10
6174;DHT22;3120;48.796;9.796;2023-07-20T22:54:53;16.90;75.50
6174;DHT22;3120;48.796;9.796;2023-07-20T22:57:19;16.90;74.90
6174;DHT22;3120;48.796;9.796;2023-07-20T22:59:45;16.80;76.70
6174;DHT22;3120;48.796;9.796;2023-07-20T23:02:11;16.70;76.70
6174;DHT22;3120;48.796;9.796;2023-07-20T23:04:37;16.60;76.80
6174;DHT22;3120;48.796;9.796;2023-07-20T23:07:03;16.60;76.60
6174;DHT22;3120;48.796;9.796;2023-07-20T23:09:29;16.60;76.80
6174;DHT22;3120;48.796;9.796;2023-07-20T23:11:54;16.60;77.60
6174;DHT22;3120;48.796;9.796;2023-07-20T23:14:21;16.50;77.70
6174;DHT22;3120;48.796;9.796;2023-07-20T23:16:47;16.40;78.60
6174;DHT22;3120;48.796;9.796;2023-07-20T23:19:12;16.30;81.20
6174;DHT22;3120;48.796;9.796;2023-07-20T23:21:38;16.40;79.90
6174;DHT22;3120;48.796;9.796;2023-07-20T23:24:04;16.40;78.70
6174;DHT22;3120;48.796;9.796;2023-07-20T23:26:29;16.40;79.20
6174;DHT22;3120;48.796;9.796;2023-07-20T23:28:55;16.40;79.30
6174;DHT22;3120;48.796;9.796;2023-07-20T23:31:21;16.40;79.00
6174;DHT22;3120;48.796;9.796;2023-07-20T23:33:48;16.50;78.60
6174;DHT22;3120;48.796;9.796;2023-07-20T23:36:14;16.50;78.50
6174;DHT22;3120;48.796;9.796;2023-07-20T23:38:40;16.50;78.50
6174;DHT22;3120;48.796;9.796;2023-07-20T23:41:07;16.40;78.50
6174;DHT22;3120;48.796;9.796;2023-07-20T23:43:37;16.30;80.40
6174;DHT22;3120;48.796;9.796;2023-07-20T23:46:04;16.20;80.20
6174;DHT22;3120;48.796;9.796;2023-07-20T23:48:34;16.20;80.10
6174;DHT22;3120;48.796;9.796;2023-07-20T23:51:13;16.10;80.60
6174;DHT22;3120;48.796;9.796;2023-07-20T23:53:45;16.20;81.10
6174;DHT22;3120;48.796;9.796;2023-07-20T23:56:12;16.40;80.20
6174;DHT22;3120;48.796;9.796;2023-07-20T23:58:40;16.50;79.60
